Time;durP1;ratioP1;P1;durP2;ratioP2;P2;SDS_P1;SDS_P2;PMS_P1;PMS_P2;Temp;Humidity;BMP_temperature;BMP_pressure;BME280_temperature;BME280_humidity;BME280_pressure;Samples;Min_cycle;Max_cycle;Signal;HPM_P1;HPM_P2
2023/10/27 00:00:23;;;;;;;10.23;2.60;;;;;8.10;92015.00;;;;7402807;19;20137;-80
2023/10/27 00:02:58;;;;;;;9.40;2.20;;;;;8.10;92006.00;;;;7402182;19;20141;-80
2023/10/27 00:05:29;;;;;;;9.80;2.63;;;;;8.10;92006.00;;;;7401041;19;20152;-80
2023/10/27 00:08:09;;;;;;;8.03;2.47;;;;;8.10;92010.00;;;;7400224;19;20145;-80
2023/10/27 00:10:43;;;;;;;9.67;2.40;;;;;8.10;92000.00;;;;7401381;19;20135;-80
2023/10/27 00:13:18;;;;;;;9.87;2.10;;;;;8.10;92005.00;;;;7401421;19;20141;-80
2023/10/27 00:15:54;;;;;;;7.23;2.23;;;;;8.00;92012.00;;;;7400707;19;20486;-80
2023/10/27 00:18:28;;;;;;;8.03;2.30;;;;;8.00;92009.00;;;;7402127;19;20139;-80
2023/10/27 00:21:02;;;;;;;8.53;2.27;;;;;8.00;92004.00;;;;7400961;19;20208;-80
2023/10/27 00:23:33;;;;;;;5.93;2.10;;;;;8.00;92005.00;;;;7402021;19;20180;-80
2023/10/27 00:26:12;;;;;;;11.00;2.00;;;;;8.00;92021.00;;;;7401219;19;20155;-80
2023/10/27 00:28:40;;;;;;;5.93;2.03;;;;;7.90;92024.00;;;;7402424;19;20467;-80
2023/10/27 00:31:14;;;;;;;6.63;2.20;;;;;7.90;92019.00;;;;7402089;19;20641;-80
2023/10/27 00:33:48;;;;;;;6.63;1.97;;;;;7.90;92021.00;;;;7402825;19;20540;-81
2023/10/27 00:36:23;;;;;;;7.90;2.10;;;;;7.90;92020.00;;;;7399597;19;20142;-80
2023/10/27 00:38:58;;;;;;;8.33;1.90;;;;;7.90;92019.00;;;;7400793;19;20592;-80
2023/10/27 00:41:32;;;;;;;5.77;1.90;;;;;7.90;92012.00;;;;7401841;19;20149;-80
2023/10/27 00:44:01;;;;;;;4.87;1.63;;;;;7.80;92012.00;;;;7400263;19;20129;-80
2023/10/27 00:46:35;;;;;;;7.77;1.80;;;;;7.80;92016.00;;;;7402047;19;20588;-80
2023/10/27 00:49:03;;;;;;;6.77;1.83;;;;;7.80;92009.00;;;;7400311;19;20227;-80
2023/10/27 00:51:31;;;;;;;11.07;1.97;;;;;7.70;92007.00;;;;7400795;19;20147;-80
2023/10/27 00:54:08;;;;;;;7.90;1.57;;;;;7.70;91994.00;;;;7398602;19;20608;-80
2023/10/27 00:56:45;;;;;;;6.03;1.70;;;;;7.70;91987.00;;;;7399344;19;20153;-82
2023/10/27 00:59:19;;;;;;;4.23;1.50;;;;;7.70;91994.00;;;;7401759;19;20147;-82
2023/10/27 01:01:46;;;;;;;3.77;1.50;;;;;7.70;91993.00;;;;7393511;19;20200;-77
2023/10/27 01:04:27;;;;;;;5.87;1.87;;;;;7.70;91996.00;;;;7396814;19;20138;-77
2023/10/27 01:06:56;;;;;;;5.73;1.40;;;;;7.70;91995.00;;;;7401908;19;20634;-77
2023/10/27 01:09:30;;;;;;;6.37;1.50;;;;;7.70;91994.00;;;;7402078;19;20591;-77
2023/10/27 01:11:58;;;;;;;3.43;1.70;;;;;7.70;91993.00;;;;7399689;19;20636;-76
2023/10/27 01:14:33;;;;;;;3.47;1.83;;;;;7.70;91987.00;;;;7402388;19;20136;-78
2023/10/27 01:17:03;;;;;;;4.17;1.43;;;;;7.70;91989.00;;;;7400011;19;20144;-77
2023/10/27 01:19:36;;;;;;;6.73;1.83;;;;;7.60;91985.00;;;;7400896;19;20133;-76
2023/10/27 01:22:15;;;;;;;7.17;1.67;;;;;7.70;91986.00;;;;7382337;19;20500;-75
2023/10/27 01:24:50;;;;;;;4.77;1.57;;;;;7.80;91980.00;;;;7400479;19;20156;-77
2023/10/27 01:27:18;;;;;;;5.33;1.40;;;;;7.70;91976.00;;;;7400299;19;20153;-76
2023/10/27 01:29:52;;;;;;;7.27;1.50;;;;;7.70;91974.00;;;;7400304;19;20149;-78
2023/10/27 01:32:20;;;;;;;6.30;1.80;;;;;7.70;91969.00;;;;7399676;19;20578;-77
2023/10/27 01:34:53;;;;;;;5.10;1.70;;;;;7.60;91965.00;;;;7401209;19;20607;-78
2023/10/27 01:37:28;;;;;;;3.67;1.80;;;;;7.60;91970.00;;;;7398745;19;20149;-75
2023/10/27 01:40:03;;;;;;;8.37;1.50;;;;;7.60;91965.00;;;;7400302;19;20143;-77
2023/10/27 01:42:37;;;;;;;6.33;1.60;;;;;7.60;91967.00;;;;7399587;19;20133;-77
2023/10/27 01:45:05;;;;;;;3.70;1.30;;;;;7.60;91963.00;;;;7398971;19;20619;-78
2023/10/27 01:47:39;;;;;;;3.17;1.33;;;;;7.60;91960.00;;;;7397846;19;20216;-76
2023/10/27 01:50:08;;;;;;;2.23;1.20;;;;;7.50;91952.00;;;;7398266;19;20208;-77
2023/10/27 01:52:43;;;;;;;5.83;1.60;;;;;7.60;91952.00;;;;7398973;19;20483;-77
2023/10/27 01:55:10;;;;;;;7.33;1.57;;;;;7.50;91945.00;;;;7397322;19;20129;-77
2023/10/27 01:57:45;;;;;;;5.93;1.37;;;;;7.50;91941.00;;;;7396753;19;20471;-77
2023/10/27 02:00:18;;;;;;;4.63;1.40;;;;;7.50;91947.00;;;;7397324;19;20153;-77
2023/10/27 02:03:01;;;;;;;7.00;1.57;;;;;7.50;91934.00;;;;7397312;19;20152;-76
2023/10/27 02:05:29;;;;;;;2.87;1.20;;;;;7.50;91929.00;;;;7400235;19;20120;-77
2023/10/27 02:08:04;;;;;;;6.97;1.57;;;;;7.50;91936.00;;;;7398941;19;20489;-78
2023/10/27 02:10:38;;;;;;;4.10;1.40;;;;;7.50;91933.00;;;;7391628;19;20635;-76
2023/10/27 02:13:21;;;;;;;3.23;1.23;;;;;7.50;91933.00;;;;7397780;19;20148;-77
2023/10/27 02:15:55;;;;;;;6.07;1.30;;;;;7.50;91938.00;;;;7399258;19;20247;-75
2023/10/27 02:18:29;;;;;;;5.40;1.00;;;;;7.60;91933.00;;;;7396040;19;20628;-77
2023/10/27 02:20:56;;;;;;;4.73;1.30;;;;;7.60;91930.00;;;;7396946;19;20141;-77
2023/10/27 02:23:31;;;;;;;6.27;1.40;;;;;7.50;91942.00;;;;7398303;19;20168;-77
2023/10/27 02:26:05;;;;;;;3.13;1.20;;;;;7.50;91941.00;;;;7397594;19;20136;-76
2023/10/27 02:28:39;;;;;;;4.70;1.40;;;;;7.50;91938.00;;;;7396947;19;20157;-77
2023/10/27 02:31:06;;;;;;;3.00;1.00;;;;;7.60;91936.00;;;;7397817;19;20631;-77
2023/10/27 02:33:41;;;;;;;3.13;1.10;;;;;7.60;91934.00;;;;7397425;19;20218;-77
2023/10/27 02:36:15;;;;;;;3.13;1.33;;;;;7.50;91930.00;;;;7397152;19;20659;-77
2023/10/27 02:38:42;;;;;;;2.97;1.00;;;;;7.60;91935.00;;;;7397401;19;20472;-76
2023/10/27 02:41:18;;;;;;;1.93;0.77;;;;;7.50;91934.00;;;;7397885;19;20655;-78
2023/10/27 02:43:45;;;;;;;2.60;1.00;;;;;7.50;91927.00;;;;7397976;19;20147;-77
2023/10/27 02:46:19;;;;;;;3.73;1.10;;;;;7.50;91924.00;;;;7393940;19;20150;-77
2023/10/27 02:48:47;;;;;;;4.27;1.10;;;;;7.50;91922.00;;;;7397800;19;20607;-77
2023/10/27 02:51:15;;;;;;;3.77;1.10;;;;;7.50;91914.00;;;;7396293;19;20588;-77
2023/10/27 02:53:50;;;;;;;6.23;1.10;;;;;7.50;91921.00;;;;7398989;19;20237;-77
2023/10/27 02:56:25;;;;;;;4.17;1.00;;;;;7.50;91912.00;;;;7397890;19;20128;-78
2023/10/27 02:58:59;;;;;;;1.23;0.87;;;;;7.60;91902.00;;;;7397341;19;20137;-77
2023/10/27 03:01:38;;;;;;;3.57;1.00;;;;;7.50;91902.00;;;;7396905;19;20496;-76
2023/10/27 03:04:19;;;;;;;4.10;1.07;;;;;7.70;91906.00;;;;7397042;19;20133;-77
2023/10/27 03:06:47;;;;;;;3.63;0.97;;;;;7.50;91904.00;;;;7395850;19;20147;-77
2023/10/27 03:09:21;;;;;;;2.97;1.00;;;;;7.60;91902.00;;;;7398148;19;20196;-77
2023/10/27 03:11:55;;;;;;;2.33;0.90;;;;;7.50;91841.00;;;;7396732;19;20596;-77
2023/10/27 03:14:23;;;;;;;2.80;1.00;;;;;7.50;91903.00;;;;7396477;19;20173;-77
2023/10/27 03:16:51;;;;;;;3.30;1.17;;;;;7.50;91898.00;;;;7400091;19;20157;-78
2023/10/27 03:19:25;;;;;;;2.60;1.00;;;;;7.50;91893.00;;;;7403203;19;20178;-78
2023/10/27 03:21:53;;;;;;;6.03;1.10;;;;;7.50;91899.00;;;;7403153;19;20148;-76
2023/10/27 03:24:27;;;;;;;1.93;0.90;;;;;7.50;91904.00;;;;7403629;19;20140;-78
2023/10/27 03:27:02;;;;;;;1.03;0.70;;;;;7.50;91908.00;;;;7399369;19;20236;-76
2023/10/27 03:29:36;;;;;;;1.63;0.70;;;;;7.50;91899.00;;;;7403544;19;20147;-77
2023/10/27 03:32:08;;;;;;;1.33;0.80;;;;;7.50;91893.00;;;;7401618;19;20392;-74
2023/10/27 03:34:45;;;;;;;2.00;0.87;;;;;7.50;91902.00;;;;7403738;19;20492;-74
2023/10/27 03:37:18;;;;;;;2.83;0.90;;;;;7.50;91895.00;;;;7402096;19;20133;-75
2023/10/27 03:39:51;;;;;;;3.13;0.80;;;;;7.50;91894.00;;;;7404717;19;20208;-76
2023/10/27 03:42:19;;;;;;;2.27;0.93;;;;;7.50;91893.00;;;;7404183;19;20608;-76
2023/10/27 03:44:47;;;;;;;2.27;0.90;;;;;7.50;91895.00;;;;7403765;19;20137;-73
2023/10/27 03:47:21;;;;;;;2.20;0.90;;;;;7.60;91903.00;;;;7403636;19;20621;-76
2023/10/27 03:49:54;;;;;;;2.43;1.10;;;;;7.60;91891.00;;;;7403567;19;20139;-76
2023/10/27 03:52:29;;;;;;;2.90;0.90;;;;;7.60;91894.00;;;;7402643;19;20151;-76
2023/10/27 03:54:58;;;;;;;2.17;1.33;;;;;7.60;91898.00;;;;7403686;19;20136;-76
2023/10/27 03:57:32;;;;;;;3.63;1.50;;;;;7.60;91887.00;;;;7402962;19;20137;-76
2023/10/27 04:00:07;;;;;;;11.90;2.10;;;;;7.50;91888.00;;;;7401648;19;20155;-75
2023/10/27 04:02:47;;;;;;;1.63;1.33;;;;;7.60;91890.00;;;;7399539;19;20569;-76
2023/10/27 04:05:28;;;;;;;6.53;1.77;;;;;7.60;91883.00;;;;7401964;19;20132;-75
2023/10/27 04:07:56;;;;;;;4.63;1.27;;;;;7.60;91891.00;;;;7402280;19;20149;-76
2023/10/27 04:10:34;;;;;;;1.77;1.30;;;;;7.50;91891.00;;;;7403022;19;20150;-76
2023/10/27 04:13:04;;;;;;;2.07;1.60;;;;;7.60;91887.00;;;;7402206;19;20143;-76
2023/10/27 04:15:38;;;;;;;4.03;1.53;;;;;7.60;91890.00;;;;7404533;19;20643;-74
2023/10/27 04:18:09;;;;;;;1.77;1.40;;;;;7.60;91887.00;;;;7400813;19;20635;-74
2023/10/27 04:20:38;;;;;;;2.73;1.70;;;;;7.60;91881.00;;;;7401866;19;20145;-75
2023/10/27 04:23:14;;;;;;;2.93;1.20;;;;;7.50;91890.00;;;;7401940;19;20214;-73
2023/10/27 04:25:42;;;;;;;3.43;1.77;;;;;7.60;91891.00;;;;7401237;19;20470;-74
2023/10/27 04:28:18;;;;;;;2.33;1.40;;;;;7.60;91889.00;;;;7399034;19;20140;-75
2023/10/27 04:30:49;;;;;;;3.10;1.27;;;;;7.50;91882.00;;;;7401010;19;20144;-76
2023/10/27 04:33:24;;;;;;;2.73;1.40;;;;;7.60;91896.00;;;;7401070;19;20607;-75
2023/10/27 04:35:59;;;;;;;3.17;1.33;;;;;7.60;91888.00;;;;7400945;19;20607;-76
2023/10/27 04:38:33;;;;;;;2.13;1.50;;;;;7.70;91891.00;;;;7399529;19;20145;-78
2023/10/27 04:41:09;;;;;;;3.30;1.20;;;;;7.60;91898.00;;;;7401135;19;20144;-77
2023/10/27 04:43:42;;;;;;;3.93;1.40;;;;;7.60;91893.00;;;;7400762;19;20153;-76
2023/10/27 04:46:17;;;;;;;4.63;1.23;;;;;7.60;91892.00;;;;7399711;19;20599;-75
2023/10/27 04:48:50;;;;;;;1.47;1.13;;;;;7.60;91891.00;;;;7402140;19;20133;-78
2023/10/27 04:51:26;;;;;;;3.80;1.23;;;;;7.70;91884.00;;;;7400421;19;20611;-77
2023/10/27 04:53:54;;;;;;;1.17;1.00;;;;;7.60;91888.00;;;;7402329;19;20154;-77
2023/10/27 04:56:29;;;;;;;1.40;1.10;;;;;7.60;91891.00;;;;7399817;19;20200;-77
2023/10/27 04:59:09;;;;;;;1.23;0.90;;;;;7.60;91894.00;;;;7398870;19;20152;-77
2023/10/27 05:01:44;;;;;;;3.53;1.33;;;;;7.60;91891.00;;;;7400243;19;20634;-76
2023/10/27 05:04:25;;;;;;;6.30;1.20;;;;;7.60;91888.00;;;;7401393;19;20129;-77
2023/10/27 05:07:00;;;;;;;2.83;1.10;;;;;7.60;91898.00;;;;7400534;19;20155;-77
2023/10/27 05:09:35;;;;;;;2.13;0.90;;;;;7.60;91893.00;;;;7400161;19;20141;-77
2023/10/27 05:12:10;;;;;;;3.50;1.23;;;;;7.60;91890.00;;;;7399600;19;20145;-75
2023/10/27 05:14:45;;;;;;;3.87;0.90;;;;;7.60;91889.00;;;;7400463;19;20152;-77
2023/10/27 05:17:17;;;;;;;2.10;1.20;;;;;7.60;91900.00;;;;7399408;19;20157;-78
2023/10/27 05:19:51;;;;;;;1.30;1.17;;;;;7.60;91905.00;;;;7397987;19;20608;-75
2023/10/27 05:22:34;;;;;;;4.63;1.27;;;;;7.60;91900.00;;;;7400567;19;20459;-77
2023/10/27 05:25:09;;;;;;;2.63;0.90;;;;;7.60;91904.00;;;;7399081;19;20172;-75
2023/10/27 05:27:53;;;;;;;4.07;1.53;;;;;7.60;91915.00;;;;7400655;19;20132;-75
2023/10/27 05:30:21;;;;;;;1.50;0.93;;;;;7.60;91913.00;;;;7401723;19;20137;-75
2023/10/27 05:32:55;;;;;;;3.03;0.83;;;;;7.60;91909.00;;;;7401327;19;20128;-77
2023/10/27 05:35:23;;;;;;;1.30;0.97;;;;;7.60;91921.00;;;;7399874;19;20135;-76
2023/10/27 05:37:57;;;;;;;1.83;1.00;;;;;7.60;91928.00;;;;7399138;19;20458;-80
2023/10/27 05:40:25;;;;;;;2.90;0.83;;;;;7.60;91930.00;;;;7397890;19;20183;-78
2023/10/27 05:43:00;;;;;;;2.70;0.80;;;;;7.60;91931.00;;;;7400954;19;20137;-77
2023/10/27 05:45:36;;;;;;;2.63;0.80;;;;;7.60;91941.00;;;;7400002;19;20191;-76
2023/10/27 05:48:04;;;;;;;1.90;0.80;;;;;7.60;91948.00;;;;7398064;19;20165;-76
2023/10/27 05:50:38;;;;;;;0.73;0.70;;;;;7.70;91939.00;;;;7397483;19;20627;-77
2023/10/27 05:53:12;;;;;;;1.43;0.70;;;;;7.70;91951.00;;;;7398167;19;20648;-77
2023/10/27 05:55:44;;;;;;;1.50;0.60;;;;;7.70;91947.00;;;;7397702;19;20144;-77
2023/10/27 05:58:12;;;;;;;0.53;0.47;;;;;7.80;91949.00;;;;7397312;19;20147;-77
2023/10/27 06:00:49;;;;;;;1.60;0.40;;;;;7.90;91956.00;;;;7397017;19;20172;-74
2023/10/27 06:03:23;;;;;;;0.63;0.43;;;;;7.90;91958.00;;;;7396231;19;20145;-76
2023/10/27 06:05:58;;;;;;;0.97;0.50;;;;;7.90;91959.00;;;;7398007;19;20133;-74
2023/10/27 06:08:35;;;;;;;2.20;0.83;;;;;7.80;91957.00;;;;7398877;19;20139;-76
2023/10/27 06:11:13;;;;;;;0.87;0.50;;;;;7.90;91961.00;;;;7396958;19;20152;-76
2023/10/27 06:13:48;;;;;;;0.90;0.40;;;;;7.90;91971.00;;;;7397235;19;20630;-74
2023/10/27 06:16:33;;;;;;;6.13;0.60;;;;;7.90;91956.00;;;;7397768;19;20178;-76
2023/10/27 06:19:03;;;;;;;1.40;0.30;;;;;7.90;91970.00;;;;7396436;19;20492;-77
2023/10/27 06:21:38;;;;;;;0.90;0.50;;;;;7.80;91972.00;;;;7397381;19;20136;-75
2023/10/27 06:24:10;;;;;;;0.40;0.40;;;;;7.80;91970.00;;;;7399567;19;20444;-73
2023/10/27 06:26:44;;;;;;;0.50;0.37;;;;;7.80;91968.00;;;;7396913;19;20140;-76
2023/10/27 06:29:12;;;;;;;1.43;0.60;;;;;7.70;91971.00;;;;7396594;19;20636;-77
2023/10/27 06:31:40;;;;;;;0.60;0.50;;;;;7.80;91978.00;;;;7396976;19;20581;-76
2023/10/27 06:34:14;;;;;;;2.17;0.47;;;;;7.80;91977.00;;;;7398075;19;20152;-75
2023/10/27 06:36:49;;;;;;;1.33;0.50;;;;;7.70;91989.00;;;;7396957;19;20144;-75
2023/10/27 06:39:28;;;;;;;0.53;0.40;;;;;7.80;92000.00;;;;7394919;19;20151;-75
2023/10/27 06:42:03;;;;;;;0.93;0.50;;;;;7.90;92006.00;;;;7396373;19;20597;-76
2023/10/27 06:44:31;;;;;;;0.40;0.40;;;;;7.80;92005.00;;;;7394989;19;20137;-75
2023/10/27 06:47:06;;;;;;;0.40;0.40;;;;;7.90;92000.00;;;;7392707;19;20207;-78
2023/10/27 06:49:40;;;;;;;2.33;0.73;;;;;7.90;92005.00;;;;7390148;19;20234;-74
2023/10/27 06:52:14;;;;;;;0.40;0.40;;;;;7.90;92013.00;;;;7394263;19;20148;-75
2023/10/27 06:54:42;;;;;;;0.50;0.50;;;;;8.00;92011.00;;;;7395095;19;20647;-74
2023/10/27 06:57:17;;;;;;;0.50;0.40;;;;;7.90;92009.00;;;;7396732;19;20594;-74
2023/10/27 06:59:55;;;;;;;1.07;0.47;;;;;7.90;92020.00;;;;7394307;19;20133;-74
2023/10/27 07:02:34;;;;;;;0.40;0.40;;;;;7.80;92022.00;;;;7393342;19;20658;-72
2023/10/27 07:05:29;;;;;;;0.67;0.50;;;;;7.90;92026.00;;;;7396785;19;20188;-76
2023/10/27 07:07:57;;;;;;;0.40;0.40;;;;;7.90;92032.00;;;;7396654;19;20731;-76
2023/10/27 07:10:31;;;;;;;0.30;0.30;;;;;8.00;92026.00;;;;7396577;19;20144;-78
2023/10/27 07:13:18;;;;;;;0.50;0.50;;;;;8.10;92032.00;;;;7379812;19;20564;-77
2023/10/27 07:15:46;;;;;;;0.40;0.40;;;;;8.10;92030.00;;;;7381935;19;20129;-79
2023/10/27 07:18:22;;;;;;;0.93;0.50;;;;;8.00;92032.00;;;;7384036;19;20125;-78
2023/10/27 07:20:56;;;;;;;0.10;0.10;;;;;8.10;92036.00;;;;7384672;19;20156;-81
2023/10/27 07:23:31;;;;;;;0.17;0.17;;;;;8.10;92034.00;;;;7383681;19;20161;-79
2023/10/27 07:26:14;;;;;;;0.30;0.30;;;;;8.10;92046.00;;;;7384928;19;20469;-78
2023/10/27 07:28:48;;;;;;;0.40;0.40;;;;;8.10;92035.00;;;;7382921;19;20148;-79
2023/10/27 07:31:22;;;;;;;0.17;0.17;;;;;8.20;92034.00;;;;7384425;19;20137;-77
2023/10/27 07:33:58;;;;;;;0.33;0.23;;;;;8.00;92036.00;;;;7385387;19;20144;-78
2023/10/27 07:36:33;;;;;;;1.00;0.50;;;;;8.20;92034.00;;;;7383668;19;20169;-77
2023/10/27 07:39:08;;;;;;;0.23;0.23;;;;;8.20;92044.00;;;;7384804;19;20144;-80
2023/10/27 07:41:37;;;;;;;1.47;0.30;;;;;8.30;92039.00;;;;7383550;19;20212;-78
2023/10/27 07:44:12;;;;;;;0.13;0.13;;;;;8.30;92049.00;;;;7381697;19;20143;-78
2023/10/27 07:46:42;;;;;;;0.67;0.40;;;;;8.20;92054.00;;;;7382318;19;20160;-78
2023/10/27 07:49:19;;;;;;;0.30;0.30;;;;;8.20;92053.00;;;;7381476;19;20604;-79
2023/10/27 07:51:46;;;;;;;0.20;0.20;;;;;8.20;92067.00;;;;7382407;19;20144;-78
2023/10/27 07:54:21;;;;;;;0.20;0.20;;;;;8.20;92061.00;;;;7380638;19;20579;-78
2023/10/27 07:56:51;;;;;;;0.43;0.20;;;;;8.10;92071.00;;;;7380394;19;20141;-80
2023/10/27 07:59:26;;;;;;;1.90;0.60;;;;;8.20;92076.00;;;;7381342;19;20140;-77
2023/10/27 08:02:12;;;;;;;0.30;0.30;;;;;8.20;92077.00;;;;7381986;19;20518;-78
2023/10/27 08:04:46;;;;;;;0.27;0.10;;;;;8.10;92068.00;;;;7387703;19;20155;-79
2023/10/27 08:07:21;;;;;;;0.10;0.10;;;;;8.10;92084.00;;;;7387117;19;20516;-79
2023/10/27 08:09:49;;;;;;;0.93;0.20;;;;;8.20;92105.00;;;;7387988;19;20196;-76
2023/10/27 08:12:20;;;;;;;2.87;0.23;;;;;8.20;92106.00;;;;7388566;19;20616;-82
2023/10/27 08:14:54;;;;;;;0.20;0.20;;;;;8.10;92108.00;;;;7387138;19;20152;-77
2023/10/27 08:17:28;;;;;;;0.20;0.17;;;;;8.00;92103.00;;;;7388025;19;20157;-76
2023/10/27 08:19:56;;;;;;;0.20;0.17;;;;;8.00;92117.00;;;;7387495;19;20137;-77
2023/10/27 08:22:34;;;;;;;0.10;0.10;;;;;8.00;92115.00;;;;7389079;19;20448;-76
2023/10/27 08:25:03;;;;;;;0.47;0.30;;;;;8.20;92127.00;;;;7389013;19;20180;-75
2023/10/27 08:27:41;;;;;;;0.10;0.10;;;;;8.10;92132.00;;;;7389097;19;20132;-74
2023/10/27 08:30:14;;;;;;;0.23;0.10;;;;;8.20;92129.00;;;;7391263;19;20642;-77
2023/10/27 08:32:49;;;;;;;0.40;0.20;;;;;8.20;92122.00;;;;7389406;19;20133;-75
2023/10/27 08:35:23;;;;;;;1.27;0.20;;;;;8.20;92117.00;;;;7388858;19;20153;-75
2023/10/27 08:37:58;;;;;;;0.33;0.30;;;;;8.20;92107.00;;;;7387855;19;20158;-78
2023/10/27 08:40:32;;;;;;;0.83;0.03;;;;;8.50;92106.00;;;;7389024;19;20595;-76
2023/10/27 08:43:02;;;;;;;0.40;0.20;;;;;8.60;92115.00;;;;7387932;19;20596;-78
2023/10/27 08:45:38;;;;;;;0.27;0.20;;;;;8.60;92118.00;;;;7388097;19;20152;-78
2023/10/27 08:48:19;;;;;;;1.17;0.10;;;;;8.50;92138.00;;;;7388745;19;20591;-75
2023/10/27 08:50:51;;;;;;;0.40;0.30;;;;;8.40;92134.00;;;;7386682;19;20228;-76
2023/10/27 08:53:27;;;;;;;0.20;0.20;;;;;8.30;92143.00;;;;7387634;19;20196;-77
2023/10/27 08:56:02;;;;;;;0.17;0.10;;;;;8.30;92149.00;;;;7387692;19;20173;-76
2023/10/27 08:58:29;;;;;;;0.90;0.30;;;;;8.40;92148.00;;;;7388878;19;20649;-77
2023/10/27 09:01:04;;;;;;;0.40;0.40;;;;;8.40;92159.00;;;;7389130;19;20180;-76
2023/10/27 09:03:38;;;;;;;2.40;0.60;;;;;8.40;92143.00;;;;7388023;19;20187;-79
2023/10/27 09:06:13;;;;;;;1.37;0.43;;;;;8.40;92165.00;;;;7388784;19;20487;-76
2023/10/27 09:08:43;;;;;;;1.13;0.53;;;;;8.40;92163.00;;;;7387930;19;20514;-77
2023/10/27 09:11:17;;;;;;;2.67;0.40;;;;;8.60;92171.00;;;;7388803;19;20160;-75
2023/10/27 09:13:45;;;;;;;0.83;0.57;;;;;8.60;92175.00;;;;7388840;19;20482;-78
2023/10/27 09:16:26;;;;;;;1.10;0.40;;;;;8.60;92185.00;;;;7387761;19;20152;-78
2023/10/27 09:18:55;;;;;;;1.90;0.40;;;;;8.50;92185.00;;;;7387203;19;20152;-77
2023/10/27 09:21:35;;;;;;;2.60;0.80;;;;;8.40;92182.00;;;;7388501;19;20596;-78
2023/10/27 09:24:11;;;;;;;1.03;0.70;;;;;8.40;92185.00;;;;7387502;19;20531;-78
2023/10/27 09:26:46;;;;;;;4.27;0.70;;;;;8.30;92194.00;;;;7388139;19;20173;-79
2023/10/27 09:29:47;;;;;;;2.37;0.70;;;;;8.30;92199.00;;;;7388492;19;20145;-76
2023/10/27 09:32:26;;;;;;;0.80;0.80;;;;;8.30;92201.00;;;;7386124;19;20174;-74
2023/10/27 09:35:09;;;;;;;1.67;0.83;;;;;8.30;92199.00;;;;7386735;19;20133;-74
2023/10/27 09:37:41;;;;;;;1.80;0.70;;;;;8.30;92207.00;;;;7384896;19;20575;-77
2023/10/27 09:40:15;;;;;;;2.80;0.90;;;;;8.30;92212.00;;;;7385715;19;20148;-75
2023/10/27 09:42:53;;;;;;;0.80;0.73;;;;;8.30;92205.00;;;;7384771;19;20599;-78
2023/10/27 09:45:30;;;;;;;2.07;0.83;;;;;8.30;92210.00;;;;7383325;19;20133;-73
2023/10/27 09:48:06;;;;;;;3.53;0.83;;;;;8.40;92222.00;;;;7384349;19;20604;-74
2023/10/27 09:50:34;;;;;;;3.77;1.00;;;;;8.50;92224.00;;;;7384671;19;20149;-77
2023/10/27 09:53:06;;;;;;;3.77;1.00;;;;;8.60;92215.00;;;;7385831;19;20148;-77
2023/10/27 09:55:42;;;;;;;3.03;0.90;;;;;8.80;92223.00;;;;7385744;19;20611;-72
2023/10/27 09:58:17;;;;;;;3.43;0.80;;;;;8.80;92236.00;;;;7384198;19;20502;-74
2023/10/27 10:00:45;;;;;;;3.37;1.23;;;;;8.80;92238.00;;;;7383498;19;20180;-74
2023/10/27 10:03:13;;;;;;;1.60;0.80;;;;;8.70;92233.00;;;;7382549;19;20187;-74
2023/10/27 10:06:17;;;;;;;2.50;1.03;;;;;9.10;92239.00;;;;7384135;19;20156;-76
2023/10/27 10:09:11;;;;;;;8.70;3.97;;;;;9.10;92233.00;;;;7385156;19;20901;-75
2023/10/27 10:11:48;;;;;;;2.23;1.00;;;;;9.10;92243.00;;;;7385642;19;20129;-77
2023/10/27 10:14:37;;;;;;;4.07;1.30;;;;;9.10;92233.00;;;;7386834;19;20129;-77
2023/10/27 10:17:13;;;;;;;4.33;1.37;;;;;9.30;92237.00;;;;7384487;19;20169;-77
2023/10/27 10:19:49;;;;;;;3.80;1.30;;;;;9.80;92233.00;;;;7385776;19;20474;-77
2023/10/27 10:22:39;;;;;;;5.30;1.20;;;;;9.80;92246.00;;;;7387471;19;20157;-77
2023/10/27 10:25:26;;;;;;;5.10;1.00;;;;;9.50;92256.00;;;;7382921;19;20188;-76
2023/10/27 10:28:10;;;;;;;3.13;0.97;;;;;9.30;92238.00;;;;7384457;19;20147;-77
2023/10/27 10:30:40;;;;;;;7.00;1.47;;;;;9.60;92236.00;;;;7385087;19;20611;-75
2023/10/27 10:33:24;;;;;;;2.97;1.10;;;;;10.00;92245.00;;;;7383286;19;20520;-76
2023/10/27 10:36:14;;;;;;;3.47;1.15;;;;;9.40;92241.00;;;;7384036;19;20467;-77
2023/10/27 10:39:04;;;;;;;4.67;1.30;;;;;9.20;92243.00;;;;7384747;19;20158;-76
2023/10/27 10:41:47;;;;;;;3.80;1.17;;;;;9.30;92233.00;;;;7383442;19;20137;-78
2023/10/27 10:44:21;;;;;;;4.87;1.40;;;;;9.50;92230.00;;;;7383540;19;20151;-75
2023/10/27 10:46:51;;;;;;;4.03;1.20;;;;;10.00;92240.00;;;;7383218;19;20173;-75
2023/10/27 10:49:31;;;;;;;2.05;1.05;;;;;9.80;92218.00;;;;7383971;19;20175;-73
2023/10/27 10:52:09;;;;;;;8.02;1.63;;;;;9.60;92230.00;;;;7384903;19;20167;-74
2023/10/27 10:54:43;;;;;;;4.97;1.10;;;;;9.60;92213.00;;;;7384208;19;20171;-75
2023/10/27 10:57:20;;;;;;;3.72;1.27;;;;;10.00;92217.00;;;;7383854;19;20140;-75
2023/10/27 10:59:55;;;;;;;5.32;1.40;;;;;10.40;92213.00;;;;7383969;19;20489;-75
2023/10/27 11:02:38;;;;;;;4.55;1.02;;;;;10.60;92209.00;;;;7381151;19;20288;-73
2023/10/27 11:05:24;;;;;;;2.60;0.95;;;;;11.20;92208.00;;;;7382467;19;20145;-72
2023/10/27 11:08:01;;;;;;;3.45;0.90;;;;;11.50;92211.00;;;;7384695;19;20204;-79
2023/10/27 11:10:32;;;;;;;2.47;0.80;;;;;10.90;92226.00;;;;7383670;19;20145;-74
2023/10/27 11:13:10;;;;;;;4.05;0.93;;;;;10.10;92243.00;;;;7383500;19;20488;-74
2023/10/27 11:15:51;;;;;;;1.85;1.15;;;;;10.50;92227.00;;;;7382714;19;20200;-74
2023/10/27 11:18:18;;;;;;;4.38;1.20;;;;;10.70;92230.00;;;;7382310;19;20195;-73
2023/10/27 11:20:52;;;;;;;6.28;1.40;;;;;11.30;92210.00;;;;7382338;19;20181;-72
2023/10/27 11:23:26;;;;;;;4.20;1.30;;;;;12.50;92213.00;;;;7383885;19;20126;-76
2023/10/27 11:26:05;;;;;;;1.27;0.95;;;;;11.80;92232.00;;;;7388218;19;21378;-75
2023/10/27 11:28:42;;;;;;;3.42;1.15;;;;;10.90;92236.00;;;;7385083;19;20141;-73
2023/10/27 11:31:29;;;;;;;3.75;1.27;;;;;10.40;92248.00;;;;7383562;19;20588;-75
2023/10/27 11:34:04;;;;;;;3.10;0.90;;;;;10.20;92250.00;;;;7383000;19;20779;-74
2023/10/27 11:37:01;;;;;;;7.72;2.25;;;;;10.00;92241.00;;;;7384107;19;20148;-75
2023/10/27 11:39:32;;;;;;;10.02;4.28;;;;;10.00;92240.00;;;;7389865;19;20137;-76
2023/10/27 11:42:13;;;;;;;3.97;1.48;;;;;11.00;92233.00;;;;7389124;19;20153;-73
2023/10/27 11:44:49;;;;;;;5.13;1.50;;;;;10.90;92236.00;;;;7388842;19;20156;-74
2023/10/27 11:47:24;;;;;;;4.00;1.15;;;;;11.20;92231.00;;;;7388331;19;20176;-75
2023/10/27 11:50:01;;;;;;;3.13;1.10;;;;;11.60;92216.00;;;;7388940;19;20151;-72
2023/10/27 11:52:37;;;;;;;2.25;1.77;;;;;11.50;92230.00;;;;7389182;19;20128;-76
2023/10/27 11:55:09;;;;;;;4.53;2.22;;;;;11.70;92239.00;;;;7389338;19;20149;-75
2023/10/27 11:57:43;;;;;;;2.40;1.40;;;;;11.40;92251.00;;;;7388288;19;20158;-75
2023/10/27 12:00:17;;;;;;;3.35;1.70;;;;;10.90;92243.00;;;;7388553;19;20471;-74
2023/10/27 12:02:58;;;;;;;1.23;0.88;;;;;10.60;92257.00;;;;7390710;19;20797;-75
2023/10/27 12:05:33;;;;;;;4.72;1.30;;;;;10.40;92254.00;;;;7387952;19;20591;-74
2023/10/27 12:08:07;;;;;;;1.80;0.75;;;;;10.20;92261.00;;;;7391188;19;20476;-75
2023/10/27 12:10:42;;;;;;;2.15;0.88;;;;;10.30;92262.00;;;;7387301;19;20627;-79
2023/10/27 12:13:14;;;;;;;1.25;1.00;;;;;10.50;92265.00;;;;7392225;19;20616;-75
2023/10/27 12:15:49;;;;;;;1.65;0.88;;;;;10.60;92262.00;;;;7389951;19;20132;-76
2023/10/27 12:18:22;;;;;;;1.33;0.82;;;;;10.50;92271.00;;;;7387686;19;20615;-73
2023/10/27 12:21:01;;;;;;;2.30;0.63;;;;;10.20;92265.00;;;;7387188;19;20128;-74
2023/10/27 12:23:32;;;;;;;0.55;0.30;;;;;10.20;92268.00;;;;7386637;19;20175;-76
2023/10/27 12:26:07;;;;;;;1.95;0.63;;;;;10.30;92259.00;;;;7388685;19;20158;-78
2023/10/27 12:28:44;;;;;;;1.65;0.60;;;;;10.60;92263.00;;;;7389996;19;20135;-75
2023/10/27 12:31:19;;;;;;;2.42;0.93;;;;;10.50;92264.00;;;;7387969;19;20155;-74
2023/10/27 12:33:54;;;;;;;0.68;0.50;;;;;10.40;92255.00;;;;7387955;19;20663;-77
2023/10/27 12:36:22;;;;;;;1.20;0.47;;;;;10.50;92265.00;;;;7387906;19;20161;-75
2023/10/27 12:38:57;;;;;;;1.60;0.60;;;;;10.50;92274.00;;;;7392858;19;20138;-74
2023/10/27 12:41:31;;;;;;;1.33;0.47;;;;;10.40;92275.00;;;;7388634;19;20750;-76
2023/10/27 12:44:06;;;;;;;3.00;0.80;;;;;10.20;92276.00;;;;7386009;19;20184;-76
2023/10/27 12:46:34;;;;;;;0.93;0.43;;;;;10.40;92284.00;;;;7387857;19;20624;-76
2023/10/27 12:49:08;;;;;;;1.10;0.47;;;;;10.50;92262.00;;;;7386329;19;20155;-79
2023/10/27 12:51:38;;;;;;;1.95;0.52;;;;;10.50;92273.00;;;;7394253;19;20153;-75
2023/10/27 12:54:05;;;;;;;3.05;0.52;;;;;10.40;92269.00;;;;7390830;19;20197;-78
2023/10/27 12:56:40;;;;;;;0.43;0.40;;;;;10.60;92271.00;;;;7387127;19;20606;-75
2023/10/27 12:59:15;;;;;;;1.80;0.57;;;;;10.60;92271.00;;;;7392007;19;20136;-74
2023/10/27 13:01:59;;;;;;;6.20;0.70;;;;;10.50;92267.00;;;;7392817;19;20555;-75